sensor_id;sensor_type;location;lat;lon;timestamp;P1;durP1;ratioP1;P2;durP2;ratioP2
74080;SDS011;62438;52.228;6.864;2023-02-28T00:01:55;8.70;;;3.42;;
74080;SDS011;62438;52.228;6.864;2023-02-28T00:03:56;10.73;;;3.92;;
74080;SDS011;62438;52.228;6.864;2023-02-28T00:05:56;9.77;;;3.80;;
74080;SDS011;62438;52.228;6.864;2023-02-28T00:07:57;13.57;;;3.80;;
74080;SDS011;62438;52.228;6.864;2023-02-28T00:09:57;8.32;;;3.70;;
74080;SDS011;62438;52.228;6.864;2023-02-28T00:11:58;12.20;;;3.85;;
74080;SDS011;62438;52.228;6.864;2023-02-28T00:13:58;10.35;;;3.70;;
74080;SDS011;62438;52.228;6.864;2023-02-28T00:16:00;8.70;;;3.65;;
74080;SDS011;62438;52.228;6.864;2023-02-28T00:18:05;10.23;;;4.05;;
74080;SDS011;62438;52.228;6.864;2023-02-28T00:20:06;9.63;;;3.83;;
74080;SDS011;62438;52.228;6.864;2023-02-28T00:22:11;10.10;;;3.92;;
74080;SDS011;62438;52.228;6.864;2023-02-28T00:24:12;10.48;;;4.15;;
74080;SDS011;62438;52.228;6.864;2023-02-28T00:26:12;10.05;;;3.47;;
74080;SDS011;62438;52.228;6.864;2023-02-28T00:28:12;9.88;;;4.05;;
74080;SDS011;62438;52.228;6.864;2023-02-28T00:30:14;9.77;;;3.75;;
74080;SDS011;62438;52.228;6.864;2023-02-28T00:32:18;9.85;;;3.80;;
74080;SDS011;62438;52.228;6.864;2023-02-28T00:34:19;10.15;;;4.40;;
74080;SDS011;62438;52.228;6.864;2023-02-28T00:36:20;10.27;;;3.80;;
74080;SDS011;62438;52.228;6.864;2023-02-28T00:38:20;12.60;;;4.13;;
74080;SDS011;62438;52.228;6.864;2023-02-28T00:40:20;9.77;;;3.92;;
74080;SDS011;62438;52.228;6.864;2023-02-28T00:42:21;11.23;;;4.72;;
74080;SDS011;62438;52.228;6.864;2023-02-28T00:44:21;10.93;;;4.28;;
74080;SDS011;62438;52.228;6.864;2023-02-28T00:46:22;13.68;;;4.82;;
74080;SDS011;62438;52.228;6.864;2023-02-28T00:48:22;9.73;;;4.05;;
74080;SDS011;62438;52.228;6.864;2023-02-28T00:50:22;10.52;;;3.90;;
74080;SDS011;62438;52.228;6.864;2023-02-28T00:52:23;9.13;;;3.72;;
74080;SDS011;62438;52.228;6.864;2023-02-28T00:54:24;12.45;;;4.75;;
74080;SDS011;62438;52.228;6.864;2023-02-28T00:56:24;10.23;;;4.65;;
74080;SDS011;62438;52.228;6.864;2023-02-28T00:58:25;10.52;;;4.00;;
74080;SDS011;62438;52.228;6.864;2023-02-28T01:00:25;12.98;;;4.60;;
74080;SDS011;62438;52.228;6.864;2023-02-28T01:02:26;13.27;;;4.40;;
74080;SDS011;62438;52.228;6.864;2023-02-28T01:04:26;12.05;;;3.63;;
74080;SDS011;62438;52.228;6.864;2023-02-28T01:06:27;9.77;;;3.70;;
74080;SDS011;62438;52.228;6.864;2023-02-28T01:08:27;9.75;;;4.20;;
74080;SDS011;62438;52.228;6.864;2023-02-28T01:10:28;10.57;;;3.95;;
74080;SDS011;62438;52.228;6.864;2023-02-28T01:12:31;9.02;;;3.45;;
74080;SDS011;62438;52.228;6.864;2023-02-28T01:14:31;11.77;;;4.28;;
74080;SDS011;62438;52.228;6.864;2023-02-28T01:16:32;11.18;;;3.95;;
74080;SDS011;62438;52.228;6.864;2023-02-28T01:18:32;10.70;;;3.25;;
74080;SDS011;62438;52.228;6.864;2023-02-28T01:20:32;7.45;;;3.08;;
74080;SDS011;62438;52.228;6.864;2023-02-28T01:22:34;8.40;;;3.05;;
74080;SDS011;62438;52.228;6.864;2023-02-28T01:24:34;12.02;;;4.03;;
74080;SDS011;62438;52.228;6.864;2023-02-28T01:26:35;7.75;;;2.85;;
74080;SDS011;62438;52.228;6.864;2023-02-28T01:28:35;10.23;;;3.30;;
74080;SDS011;62438;52.228;6.864;2023-02-28T01:30:36;8.43;;;2.92;;
74080;SDS011;62438;52.228;6.864;2023-02-28T01:32:37;8.32;;;3.25;;
74080;SDS011;62438;52.228;6.864;2023-02-28T01:34:37;11.05;;;3.50;;
74080;SDS011;62438;52.228;6.864;2023-02-28T01:36:37;15.13;;;3.38;;
74080;SDS011;62438;52.228;6.864;2023-02-28T01:38:38;10.65;;;3.65;;
74080;SDS011;62438;52.228;6.864;2023-02-28T01:40:39;11.20;;;3.33;;
74080;SDS011;62438;52.228;6.864;2023-02-28T01:42:39;10.60;;;3.75;;
74080;SDS011;62438;52.228;6.864;2023-02-28T01:44:57;9.57;;;3.83;;
74080;SDS011;62438;52.228;6.864;2023-02-28T01:47:04;9.98;;;3.30;;
74080;SDS011;62438;52.228;6.864;2023-02-28T01:49:07;8.13;;;2.42;;
74080;SDS011;62438;52.228;6.864;2023-02-28T01:51:20;9.20;;;3.15;;
74080;SDS011;62438;52.228;6.864;2023-02-28T01:53:24;11.02;;;3.63;;
74080;SDS011;62438;52.228;6.864;2023-02-28T01:55:31;9.10;;;3.63;;
74080;SDS011;62438;52.228;6.864;2023-02-28T01:57:34;9.40;;;3.50;;
74080;SDS011;62438;52.228;6.864;2023-02-28T02:01:45;10.80;;;3.40;;
74080;SDS011;62438;52.228;6.864;2023-02-28T02:03:45;8.93;;;3.45;;
74080;SDS011;62438;52.228;6.864;2023-02-28T02:05:45;9.38;;;3.67;;
74080;SDS011;62438;52.228;6.864;2023-02-28T02:07:48;11.32;;;3.13;;
74080;SDS011;62438;52.228;6.864;2023-02-28T02:10:03;8.80;;;3.15;;
74080;SDS011;62438;52.228;6.864;2023-02-28T02:12:11;9.57;;;3.55;;
74080;SDS011;62438;52.228;6.864;2023-02-28T02:14:31;9.57;;;3.13;;
74080;SDS011;62438;52.228;6.864;2023-02-28T02:21:47;9.38;;;3.40;;
74080;SDS011;62438;52.228;6.864;2023-02-28T02:26:27;10.32;;;3.00;;
74080;SDS011;62438;52.228;6.864;2023-02-28T02:28:32;9.15;;;2.95;;
74080;SDS011;62438;52.228;6.864;2023-02-28T02:30:58;10.40;;;3.75;;
74080;SDS011;62438;52.228;6.864;2023-02-28T02:37:47;7.28;;;2.97;;
74080;SDS011;62438;52.228;6.864;2023-02-28T02:40:05;7.00;;;2.63;;
74080;SDS011;62438;52.228;6.864;2023-02-28T02:42:15;8.82;;;3.20;;
74080;SDS011;62438;52.228;6.864;2023-02-28T02:44:22;8.27;;;3.25;;
74080;SDS011;62438;52.228;6.864;2023-02-28T02:46:30;8.00;;;3.40;;
74080;SDS011;62438;52.228;6.864;2023-02-28T02:48:34;9.00;;;3.25;;
74080;SDS011;62438;52.228;6.864;2023-02-28T02:50:39;10.30;;;3.38;;
74080;SDS011;62438;52.228;6.864;2023-02-28T02:52:48;10.05;;;3.42;;
74080;SDS011;62438;52.228;6.864;2023-02-28T02:54:52;9.73;;;3.40;;
74080;SDS011;62438;52.228;6.864;2023-02-28T02:56:59;9.13;;;3.55;;
74080;SDS011;62438;52.228;6.864;2023-02-28T02:59:07;8.82;;;3.30;;
74080;SDS011;62438;52.228;6.864;2023-02-28T03:01:12;9.60;;;3.58;;
74080;SDS011;62438;52.228;6.864;2023-02-28T03:03:25;8.98;;;3.33;;
74080;SDS011;62438;52.228;6.864;2023-02-28T03:05:32;10.13;;;3.38;;
74080;SDS011;62438;52.228;6.864;2023-02-28T03:07:39;7.97;;;3.10;;
74080;SDS011;62438;52.228;6.864;2023-02-28T03:09:39;9.00;;;3.20;;
74080;SDS011;62438;52.228;6.864;2023-02-28T03:11:40;8.52;;;3.63;;
74080;SDS011;62438;52.228;6.864;2023-02-28T03:18:10;10.55;;;3.30;;
74080;SDS011;62438;52.228;6.864;2023-02-28T03:25:05;10.00;;;3.53;;
74080;SDS011;62438;52.228;6.864;2023-02-28T03:29:42;11.68;;;3.28;;
74080;SDS011;62438;52.228;6.864;2023-02-28T03:32:09;10.20;;;3.17;;
74080;SDS011;62438;52.228;6.864;2023-02-28T03:34:26;7.95;;;3.25;;
74080;SDS011;62438;52.228;6.864;2023-02-28T03:36:41;7.80;;;3.22;;
74080;SDS011;62438;52.228;6.864;2023-02-28T03:38:51;8.85;;;3.60;;
74080;SDS011;62438;52.228;6.864;2023-02-28T03:41:02;12.15;;;3.58;;
74080;SDS011;62438;52.228;6.864;2023-02-28T03:43:10;9.48;;;3.50;;
74080;SDS011;62438;52.228;6.864;2023-02-28T03:45:18;8.38;;;3.47;;
74080;SDS011;62438;52.228;6.864;2023-02-28T03:49:49;8.90;;;3.40;;
74080;SDS011;62438;52.228;6.864;2023-02-28T03:51:55;11.20;;;3.25;;
74080;SDS011;62438;52.228;6.864;2023-02-28T03:53:59;8.93;;;3.88;;
74080;SDS011;62438;52.228;6.864;2023-02-28T03:56:11;11.65;;;3.75;;
74080;SDS011;62438;52.228;6.864;2023-02-28T04:00:35;8.27;;;3.35;;
74080;SDS011;62438;52.228;6.864;2023-02-28T04:02:40;10.48;;;3.63;;
74080;SDS011;62438;52.228;6.864;2023-02-28T04:04:40;9.00;;;3.42;;
74080;SDS011;62438;52.228;6.864;2023-02-28T04:06:49;10.15;;;3.90;;
74080;SDS011;62438;52.228;6.864;2023-02-28T04:08:50;9.02;;;3.33;;
74080;SDS011;62438;52.228;6.864;2023-02-28T04:10:56;9.80;;;3.47;;
74080;SDS011;62438;52.228;6.864;2023-02-28T04:13:01;11.95;;;3.70;;
74080;SDS011;62438;52.228;6.864;2023-02-28T04:15:02;8.02;;;3.55;;
74080;SDS011;62438;52.228;6.864;2023-02-28T04:17:03;9.70;;;3.20;;
74080;SDS011;62438;52.228;6.864;2023-02-28T04:19:04;11.68;;;3.70;;
74080;SDS011;62438;52.228;6.864;2023-02-28T04:21:09;11.20;;;3.95;;
74080;SDS011;62438;52.228;6.864;2023-02-28T04:23:10;11.57;;;3.80;;
74080;SDS011;62438;52.228;6.864;2023-02-28T04:25:10;11.68;;;4.25;;
74080;SDS011;62438;52.228;6.864;2023-02-28T04:27:11;13.40;;;3.95;;
74080;SDS011;62438;52.228;6.864;2023-02-28T04:29:12;11.02;;;4.18;;
74080;SDS011;62438;52.228;6.864;2023-02-28T04:31:14;13.05;;;4.85;;
74080;SDS011;62438;52.228;6.864;2023-02-28T04:33:14;8.68;;;3.38;;
74080;SDS011;62438;52.228;6.864;2023-02-28T04:35:15;12.98;;;4.20;;
74080;SDS011;62438;52.228;6.864;2023-02-28T04:37:15;11.50;;;4.07;;
74080;SDS011;62438;52.228;6.864;2023-02-28T04:39:16;10.77;;;4.07;;
74080;SDS011;62438;52.228;6.864;2023-02-28T04:41:18;8.93;;;3.80;;
74080;SDS011;62438;52.228;6.864;2023-02-28T04:43:19;10.07;;;4.22;;
74080;SDS011;62438;52.228;6.864;2023-02-28T04:45:20;14.00;;;4.05;;
74080;SDS011;62438;52.228;6.864;2023-02-28T04:47:20;9.45;;;3.75;;
74080;SDS011;62438;52.228;6.864;2023-02-28T04:49:20;10.48;;;4.18;;
74080;SDS011;62438;52.228;6.864;2023-02-28T04:51:21;11.38;;;4.28;;
74080;SDS011;62438;52.228;6.864;2023-02-28T04:53:21;9.90;;;3.97;;
74080;SDS011;62438;52.228;6.864;2023-02-28T04:55:22;11.43;;;4.18;;
74080;SDS011;62438;52.228;6.864;2023-02-28T04:57:22;15.80;;;4.75;;
74080;SDS011;62438;52.228;6.864;2023-02-28T04:59:23;9.88;;;4.03;;
74080;SDS011;62438;52.228;6.864;2023-02-28T05:01:24;12.32;;;4.38;;
74080;SDS011;62438;52.228;6.864;2023-02-28T05:03:26;9.55;;;4.18;;
74080;SDS011;62438;52.228;6.864;2023-02-28T05:05:27;11.63;;;4.22;;
74080;SDS011;62438;52.228;6.864;2023-02-28T05:07:28;9.82;;;4.05;;
74080;SDS011;62438;52.228;6.864;2023-02-28T05:09:29;12.95;;;4.35;;
74080;SDS011;62438;52.228;6.864;2023-02-28T05:11:31;9.88;;;4.10;;
74080;SDS011;62438;52.228;6.864;2023-02-28T05:13:35;11.25;;;4.50;;
74080;SDS011;62438;52.228;6.864;2023-02-28T05:15:36;11.15;;;4.07;;
74080;SDS011;62438;52.228;6.864;2023-02-28T05:17:36;8.82;;;4.03;;
74080;SDS011;62438;52.228;6.864;2023-02-28T05:19:37;11.77;;;4.30;;
74080;SDS011;62438;52.228;6.864;2023-02-28T05:21:38;10.85;;;4.53;;
74080;SDS011;62438;52.228;6.864;2023-02-28T05:23:55;12.02;;;3.83;;
74080;SDS011;62438;52.228;6.864;2023-02-28T05:25:57;11.48;;;4.10;;
74080;SDS011;62438;52.228;6.864;2023-02-28T05:27:58;9.82;;;4.07;;
74080;SDS011;62438;52.228;6.864;2023-02-28T05:29:59;10.45;;;4.22;;
74080;SDS011;62438;52.228;6.864;2023-02-28T05:31:59;14.18;;;4.20;;
74080;SDS011;62438;52.228;6.864;2023-02-28T05:34:00;9.23;;;3.88;;
74080;SDS011;62438;52.228;6.864;2023-02-28T05:36:00;11.27;;;3.97;;
74080;SDS011;62438;52.228;6.864;2023-02-28T05:38:01;11.30;;;4.15;;
74080;SDS011;62438;52.228;6.864;2023-02-28T05:40:02;11.70;;;4.18;;
74080;SDS011;62438;52.228;6.864;2023-02-28T05:42:06;10.27;;;4.63;;
74080;SDS011;62438;52.228;6.864;2023-02-28T05:44:06;11.32;;;4.10;;
74080;SDS011;62438;52.228;6.864;2023-02-28T05:46:07;11.82;;;4.57;;
74080;SDS011;62438;52.228;6.864;2023-02-28T05:48:10;10.27;;;3.80;;
74080;SDS011;62438;52.228;6.864;2023-02-28T05:50:11;10.60;;;3.83;;
74080;SDS011;62438;52.228;6.864;2023-02-28T05:52:11;8.90;;;3.70;;
74080;SDS011;62438;52.228;6.864;2023-02-28T05:54:12;10.00;;;3.75;;
74080;SDS011;62438;52.228;6.864;2023-02-28T05:56:12;9.27;;;3.25;;
74080;SDS011;62438;52.228;6.864;2023-02-28T05:58:13;11.15;;;3.55;;
74080;SDS011;62438;52.228;6.864;2023-02-28T06:00:13;10.52;;;3.95;;
74080;SDS011;62438;52.228;6.864;2023-02-28T06:02:16;10.95;;;3.58;;
74080;SDS011;62438;52.228;6.864;2023-02-28T06:04:18;9.57;;;3.72;;
74080;SDS011;62438;52.228;6.864;2023-02-28T06:06:19;8.63;;;3.47;;
74080;SDS011;62438;52.228;6.864;2023-02-28T06:08:20;9.68;;;3.50;;
74080;SDS011;62438;52.228;6.864;2023-02-28T06:10:20;10.18;;;3.63;;
74080;SDS011;62438;52.228;6.864;2023-02-28T06:12:20;8.93;;;3.47;;
74080;SDS011;62438;52.228;6.864;2023-02-28T06:14:21;9.40;;;3.67;;
74080;SDS011;62438;52.228;6.864;2023-02-28T06:16:21;9.13;;;3.75;;
74080;SDS011;62438;52.228;6.864;2023-02-28T06:18:22;9.30;;;3.90;;
74080;SDS011;62438;52.228;6.864;2023-02-28T06:20:23;9.80;;;3.92;;
74080;SDS011;62438;52.228;6.864;2023-02-28T06:22:24;9.52;;;3.35;;
74080;SDS011;62438;52.228;6.864;2023-02-28T06:24:25;12.38;;;3.88;;
74080;SDS011;62438;52.228;6.864;2023-02-28T06:26:27;12.25;;;3.42;;
74080;SDS011;62438;52.228;6.864;2023-02-28T06:28:28;8.57;;;3.30;;
74080;SDS011;62438;52.228;6.864;2023-02-28T06:30:28;8.50;;;3.35;;
74080;SDS011;62438;52.228;6.864;2023-02-28T06:32:31;8.05;;;2.70;;
74080;SDS011;62438;52.228;6.864;2023-02-28T06:34:31;9.82;;;3.50;;
74080;SDS011;62438;52.228;6.864;2023-02-28T06:36:33;12.50;;;3.33;;
74080;SDS011;62438;52.228;6.864;2023-02-28T06:38:34;7.38;;;2.72;;
74080;SDS011;62438;52.228;6.864;2023-02-28T06:40:35;7.70;;;2.47;;
74080;SDS011;62438;52.228;6.864;2023-02-28T06:42:35;8.52;;;2.75;;
74080;SDS011;62438;52.228;6.864;2023-02-28T06:44:36;12.05;;;2.83;;
74080;SDS011;62438;52.228;6.864;2023-02-28T06:46:39;8.30;;;2.92;;
74080;SDS011;62438;52.228;6.864;2023-02-28T06:48:40;8.40;;;2.80;;
74080;SDS011;62438;52.228;6.864;2023-02-28T06:50:42;9.65;;;3.03;;
74080;SDS011;62438;52.228;6.864;2023-02-28T06:52:43;7.15;;;2.50;;
74080;SDS011;62438;52.228;6.864;2023-02-28T06:54:43;7.90;;;2.72;;
74080;SDS011;62438;52.228;6.864;2023-02-28T06:56:44;11.25;;;2.80;;
74080;SDS011;62438;52.228;6.864;2023-02-28T06:58:47;7.13;;;2.60;;
74080;SDS011;62438;52.228;6.864;2023-02-28T07:00:52;10.68;;;2.70;;
74080;SDS011;62438;52.228;6.864;2023-02-28T07:02:53;6.82;;;2.25;;
74080;SDS011;62438;52.228;6.864;2023-02-28T07:04:55;12.00;;;2.50;;
74080;SDS011;62438;52.228;6.864;2023-02-28T07:06:55;5.93;;;2.08;;
74080;SDS011;62438;52.228;6.864;2023-02-28T07:08:57;7.95;;;2.67;;
74080;SDS011;62438;52.228;6.864;2023-02-28T07:10:57;7.60;;;2.58;;
74080;SDS011;62438;52.228;6.864;2023-02-28T07:12:58;10.13;;;2.50;;
74080;SDS011;62438;52.228;6.864;2023-02-28T07:15:00;6.93;;;2.28;;
74080;SDS011;62438;52.228;6.864;2023-02-28T07:17:00;7.32;;;2.42;;
74080;SDS011;62438;52.228;6.864;2023-02-28T07:19:00;8.57;;;2.65;;
74080;SDS011;62438;52.228;6.864;2023-02-28T07:21:02;7.13;;;2.17;;
74080;SDS011;62438;52.228;6.864;2023-02-28T07:23:03;6.68;;;2.22;;
74080;SDS011;62438;52.228;6.864;2023-02-28T07:25:04;9.68;;;2.60;;
74080;SDS011;62438;52.228;6.864;2023-02-28T07:27:05;7.15;;;2.30;;
74080;SDS011;62438;52.228;6.864;2023-02-28T07:29:06;7.85;;;2.67;;
74080;SDS011;62438;52.228;6.864;2023-02-28T07:31:07;8.35;;;2.60;;
74080;SDS011;62438;52.228;6.864;2023-02-28T07:33:09;7.50;;;2.70;;
74080;SDS011;62438;52.228;6.864;2023-02-28T07:35:10;8.68;;;2.50;;
74080;SDS011;62438;52.228;6.864;2023-02-28T07:37:10;7.68;;;2.50;;
74080;SDS011;62438;52.228;6.864;2023-02-28T07:39:11;6.82;;;2.58;;
74080;SDS011;62438;52.228;6.864;2023-02-28T07:41:11;7.95;;;2.40;;
74080;SDS011;62438;52.228;6.864;2023-02-28T07:43:12;10.65;;;2.60;;
74080;SDS011;62438;52.228;6.864;2023-02-28T07:45:13;10.80;;;2.25;;
74080;SDS011;62438;52.228;6.864;2023-02-28T07:47:13;7.40;;;2.15;;
74080;SDS011;62438;52.228;6.864;2023-02-28T07:49:13;7.43;;;2.00;;
74080;SDS011;62438;52.228;6.864;2023-02-28T07:51:14;5.88;;;1.83;;
74080;SDS011;62438;52.228;6.864;2023-02-28T07:53:14;9.50;;;2.05;;
74080;SDS011;62438;52.228;6.864;2023-02-28T07:55:15;5.15;;;1.83;;
74080;SDS011;62438;52.228;6.864;2023-02-28T07:57:16;7.43;;;2.47;;
74080;SDS011;62438;52.228;6.864;2023-02-28T07:59:17;6.75;;;2.13;;
74080;SDS011;62438;52.228;6.864;2023-02-28T08:01:17;6.05;;;2.05;;
74080;SDS011;62438;52.228;6.864;2023-02-28T08:03:19;8.18;;;2.40;;
74080;SDS011;62438;52.228;6.864;2023-02-28T08:05:21;6.55;;;1.83;;
74080;SDS011;62438;52.228;6.864;2023-02-28T08:07:21;5.97;;;1.52;;
74080;SDS011;62438;52.228;6.864;2023-02-28T08:09:21;7.18;;;2.20;;
74080;SDS011;62438;52.228;6.864;2023-02-28T08:11:22;5.80;;;1.83;;
74080;SDS011;62438;52.228;6.864;2023-02-28T08:13:22;8.00;;;1.80;;
74080;SDS011;62438;52.228;6.864;2023-02-28T08:15:24;5.15;;;1.75;;
74080;SDS011;62438;52.228;6.864;2023-02-28T08:17:24;5.50;;;1.70;;
74080;SDS011;62438;52.228;6.864;2023-02-28T08:19:24;4.82;;;1.63;;
74080;SDS011;62438;52.228;6.864;2023-02-28T08:21:25;5.88;;;1.42;;
74080;SDS011;62438;52.228;6.864;2023-02-28T08:23:25;3.92;;;1.25;;
74080;SDS011;62438;52.228;6.864;2023-02-28T08:25:26;4.70;;;1.23;;
74080;SDS011;62438;52.228;6.864;2023-02-28T08:27:26;8.13;;;1.70;;
74080;SDS011;62438;52.228;6.864;2023-02-28T08:29:26;6.15;;;1.60;;
74080;SDS011;62438;52.228;6.864;2023-02-28T08:31:27;5.25;;;1.63;;
74080;SDS011;62438;52.228;6.864;2023-02-28T08:33:27;5.00;;;1.67;;
74080;SDS011;62438;52.228;6.864;2023-02-28T08:35:28;3.80;;;1.05;;
74080;SDS011;62438;52.228;6.864;2023-02-28T08:37:29;5.70;;;1.40;;
74080;SDS011;62438;52.228;6.864;2023-02-28T08:39:29;4.22;;;1.20;;
74080;SDS011;62438;52.228;6.864;2023-02-28T08:41:30;5.95;;;1.30;;
74080;SDS011;62438;52.228;6.864;2023-02-28T08:43:30;4.22;;;1.10;;
74080;SDS011;62438;52.228;6.864;2023-02-28T08:45:31;3.97;;;0.98;;
74080;SDS011;62438;52.228;6.864;2023-02-28T08:47:32;4.13;;;1.20;;
74080;SDS011;62438;52.228;6.864;2023-02-28T08:49:32;5.00;;;1.42;;
74080;SDS011;62438;52.228;6.864;2023-02-28T08:51:32;3.20;;;1.02;;
74080;SDS011;62438;52.228;6.864;2023-02-28T08:53:33;5.60;;;1.65;;
74080;SDS011;62438;52.228;6.864;2023-02-28T08:55:33;3.10;;;1.10;;
74080;SDS011;62438;52.228;6.864;2023-02-28T08:57:34;3.45;;;1.20;;
74080;SDS011;62438;52.228;6.864;2023-02-28T08:59:35;5.40;;;1.40;;
74080;SDS011;62438;52.228;6.864;2023-02-28T09:01:35;3.88;;;1.08;;
74080;SDS011;62438;52.228;6.864;2023-02-28T09:03:37;2.67;;;0.85;;
74080;SDS011;62438;52.228;6.864;2023-02-28T09:07:59;3.65;;;1.10;;
74080;SDS011;62438;52.228;6.864;2023-02-28T09:09:59;3.58;;;1.10;;
74080;SDS011;62438;52.228;6.864;2023-02-28T09:11:59;4.45;;;1.30;;
74080;SDS011;62438;52.228;6.864;2023-02-28T09:14:00;5.10;;;1.17;;
74080;SDS011;62438;52.228;6.864;2023-02-28T09:18:04;3.92;;;0.98;;
74080;SDS011;62438;52.228;6.864;2023-02-28T09:20:05;6.78;;;1.05;;
74080;SDS011;62438;52.228;6.864;2023-02-28T09:22:06;3.92;;;1.10;;
74080;SDS011;62438;52.228;6.864;2023-02-28T09:24:07;6.07;;;1.23;;
74080;SDS011;62438;52.228;6.864;2023-02-28T09:26:11;4.15;;;1.42;;
74080;SDS011;62438;52.228;6.864;2023-02-28T09:28:14;3.90;;;1.15;;
74080;SDS011;62438;52.228;6.864;2023-02-28T09:30:18;4.45;;;1.30;;
74080;SDS011;62438;52.228;6.864;2023-02-28T09:36:32;6.30;;;1.83;;
74080;SDS011;62438;52.228;6.864;2023-02-28T09:38:33;3.65;;;1.13;;
74080;SDS011;62438;52.228;6.864;2023-02-28T09:40:51;5.18;;;1.48;;
74080;SDS011;62438;52.228;6.864;2023-02-28T09:43:02;4.65;;;1.23;;
74080;SDS011;62438;52.228;6.864;2023-02-28T09:45:05;5.25;;;0.98;;
74080;SDS011;62438;52.228;6.864;2023-02-28T09:49:39;4.15;;;1.23;;
74080;SDS011;62438;52.228;6.864;2023-02-28T09:53:44;4.20;;;1.05;;
74080;SDS011;62438;52.228;6.864;2023-02-28T09:55:55;3.53;;;1.10;;
74080;SDS011;62438;52.228;6.864;2023-02-28T09:57:59;2.78;;;0.90;;
74080;SDS011;62438;52.228;6.864;2023-02-28T10:04:47;4.60;;;1.02;;
74080;SDS011;62438;52.228;6.864;2023-02-28T10:06:58;2.58;;;1.02;;
74080;SDS011;62438;52.228;6.864;2023-02-28T10:09:03;2.92;;;0.95;;
74080;SDS011;62438;52.228;6.864;2023-02-28T10:11:09;4.55;;;1.42;;
74080;SDS011;62438;52.228;6.864;2023-02-28T10:13:14;2.92;;;1.10;;
74080;SDS011;62438;52.228;6.864;2023-02-28T10:15:20;2.90;;;1.00;;
74080;SDS011;62438;52.228;6.864;2023-02-28T10:17:25;5.68;;;1.27;;
74080;SDS011;62438;52.228;6.864;2023-02-28T10:19:33;3.08;;;0.85;;
74080;SDS011;62438;52.228;6.864;2023-02-28T10:21:44;2.88;;;0.82;;
74080;SDS011;62438;52.228;6.864;2023-02-28T10:23:49;2.47;;;0.98;;
74080;SDS011;62438;52.228;6.864;2023-02-28T10:26:00;2.95;;;0.82;;
74080;SDS011;62438;52.228;6.864;2023-02-28T10:30:12;5.65;;;1.20;;
74080;SDS011;62438;52.228;6.864;2023-02-28T10:32:20;5.47;;;1.10;;
74080;SDS011;62438;52.228;6.864;2023-02-28T10:34:24;2.10;;;0.80;;
74080;SDS011;62438;52.228;6.864;2023-02-28T10:36:24;2.83;;;0.80;;
74080;SDS011;62438;52.228;6.864;2023-02-28T10:38:26;2.53;;;0.88;;
74080;SDS011;62438;52.228;6.864;2023-02-28T10:40:33;3.72;;;0.90;;
74080;SDS011;62438;52.228;6.864;2023-02-28T10:42:35;4.53;;;1.00;;
74080;SDS011;62438;52.228;6.864;2023-02-28T10:44:38;4.78;;;1.10;;
74080;SDS011;62438;52.228;6.864;2023-02-28T10:46:39;4.03;;;1.23;;
74080;SDS011;62438;52.228;6.864;2023-02-28T10:52:52;2.70;;;0.85;;
74080;SDS011;62438;52.228;6.864;2023-02-28T10:54:53;5.65;;;0.98;;
74080;SDS011;62438;52.228;6.864;2023-02-28T10:57:19;2.03;;;0.70;;
74080;SDS011;62438;52.228;6.864;2023-02-28T10:59:29;4.18;;;1.00;;
74080;SDS011;62438;52.228;6.864;2023-02-28T11:01:44;3.08;;;0.95;;
74080;SDS011;62438;52.228;6.864;2023-02-28T11:03:49;2.65;;;1.02;;
74080;SDS011;62438;52.228;6.864;2023-02-28T11:05:50;3.10;;;0.90;;
74080;SDS011;62438;52.228;6.864;2023-02-28T11:08:01;2.33;;;0.82;;
74080;SDS011;62438;52.228;6.864;2023-02-28T11:10:16;3.20;;;1.20;;
74080;SDS011;62438;52.228;6.864;2023-02-28T11:12:21;3.95;;;1.10;;
74080;SDS011;62438;52.228;6.864;2023-02-28T11:14:26;3.60;;;1.20;;
74080;SDS011;62438;52.228;6.864;2023-02-28T11:16:38;4.03;;;1.10;;
74080;SDS011;62438;52.228;6.864;2023-02-28T11:18:54;4.13;;;1.33;;
74080;SDS011;62438;52.228;6.864;2023-02-28T11:20:56;3.58;;;1.10;;
74080;SDS011;62438;52.228;6.864;2023-02-28T11:23:03;4.57;;;1.38;;
74080;SDS011;62438;52.228;6.864;2023-02-28T11:25:09;4.90;;;1.33;;
74080;SDS011;62438;52.228;6.864;2023-02-28T11:29:31;2.90;;;1.02;;
74080;SDS011;62438;52.228;6.864;2023-02-28T11:31:33;4.57;;;1.38;;
74080;SDS011;62438;52.228;6.864;2023-02-28T11:35:51;4.25;;;1.33;;
74080;SDS011;62438;52.228;6.864;2023-02-28T11:37:53;5.22;;;1.35;;
74080;SDS011;62438;52.228;6.864;2023-02-28T11:39:54;4.55;;;1.27;;
74080;SDS011;62438;52.228;6.864;2023-02-28T11:51:06;4.13;;;1.33;;
74080;SDS011;62438;52.228;6.864;2023-02-28T11:53:16;5.38;;;1.30;;
74080;SDS011;62438;52.228;6.864;2023-02-28T11:57:36;3.20;;;0.95;;
74080;SDS011;62438;52.228;6.864;2023-02-28T12:00:01;4.85;;;1.95;;
74080;SDS011;62438;52.228;6.864;2023-02-28T12:02:25;4.45;;;1.40;;
74080;SDS011;62438;52.228;6.864;2023-02-28T12:08:02;4.03;;;1.23;;
74080;SDS011;62438;52.228;6.864;2023-02-28T12:27:47;3.58;;;1.00;;
74080;SDS011;62438;52.228;6.864;2023-02-28T12:30:51;4.60;;;1.20;;
74080;SDS011;62438;52.228;6.864;2023-02-28T12:32:26;4.72;;;1.33;;
74080;SDS011;62438;52.228;6.864;2023-02-28T12:34:33;3.17;;;1.10;;
74080;SDS011;62438;52.228;6.864;2023-02-28T12:36:39;4.00;;;1.13;;
74080;SDS011;62438;52.228;6.864;2023-02-28T12:38:44;4.55;;;1.40;;
74080;SDS011;62438;52.228;6.864;2023-02-28T12:40:50;5.18;;;1.38;;
74080;SDS011;62438;52.228;6.864;2023-02-28T12:42:56;4.50;;;1.13;;
74080;SDS011;62438;52.228;6.864;2023-02-28T12:47:14;4.75;;;1.33;;
74080;SDS011;62438;52.228;6.864;2023-02-28T12:49:25;4.45;;;1.40;;
74080;SDS011;62438;52.228;6.864;2023-02-28T12:51:31;5.35;;;1.35;;
74080;SDS011;62438;52.228;6.864;2023-02-28T12:53:53;4.68;;;1.33;;
74080;SDS011;62438;52.228;6.864;2023-02-28T13:03:40;5.40;;;1.63;;
74080;SDS011;62438;52.228;6.864;2023-02-28T13:11:03;4.30;;;1.23;;
74080;SDS011;62438;52.228;6.864;2023-02-28T13:12:57;4.72;;;1.33;;
74080;SDS011;62438;52.228;6.864;2023-02-28T13:15:05;4.95;;;1.33;;
74080;SDS011;62438;52.228;6.864;2023-02-28T13:17:38;3.67;;;1.30;;
74080;SDS011;62438;52.228;6.864;2023-02-28T13:19:43;4.57;;;1.42;;
74080;SDS011;62438;52.228;6.864;2023-02-28T13:21:45;3.78;;;1.30;;
74080;SDS011;62438;52.228;6.864;2023-02-28T13:25:58;6.07;;;1.48;;
74080;SDS011;62438;52.228;6.864;2023-02-28T13:28:00;5.65;;;1.60;;
74080;SDS011;62438;52.228;6.864;2023-02-28T13:32:42;5.20;;;1.40;;
74080;SDS011;62438;52.228;6.864;2023-02-28T13:36:51;4.28;;;1.33;;
74080;SDS011;62438;52.228;6.864;2023-02-28T13:40:00;4.95;;;1.50;;
74080;SDS011;62438;52.228;6.864;2023-02-28T13:41:41;4.82;;;1.50;;
74080;SDS011;62438;52.228;6.864;2023-02-28T13:46:23;5.95;;;1.58;;
74080;SDS011;62438;52.228;6.864;2023-02-28T13:48:25;5.50;;;1.42;;
74080;SDS011;62438;52.228;6.864;2023-02-28T13:50:38;5.32;;;1.35;;
74080;SDS011;62438;52.228;6.864;2023-02-28T13:59:46;5.55;;;1.40;;
74080;SDS011;62438;52.228;6.864;2023-02-28T14:02:24;3.47;;;1.30;;
74080;SDS011;62438;52.228;6.864;2023-02-28T14:06:46;6.50;;;1.70;;
74080;SDS011;62438;52.228;6.864;2023-02-28T14:08:52;4.72;;;1.38;;
74080;SDS011;62438;52.228;6.864;2023-02-28T14:11:04;3.72;;;1.25;;
74080;SDS011;62438;52.228;6.864;2023-02-28T14:13:14;3.83;;;1.15;;
74080;SDS011;62438;52.228;6.864;2023-02-28T14:16:06;4.38;;;1.15;;
74080;SDS011;62438;52.228;6.864;2023-02-28T14:22:41;3.50;;;1.02;;
74080;SDS011;62438;52.228;6.864;2023-02-28T14:25:34;5.43;;;1.33;;
74080;SDS011;62438;52.228;6.864;2023-02-28T14:27:47;6.60;;;1.40;;
74080;SDS011;62438;52.228;6.864;2023-02-28T14:37:18;4.53;;;1.42;;
74080;SDS011;62438;52.228;6.864;2023-02-28T14:39:24;4.43;;;1.40;;
74080;SDS011;62438;52.228;6.864;2023-02-28T14:41:31;4.10;;;1.15;;
74080;SDS011;62438;52.228;6.864;2023-02-28T14:43:35;6.25;;;1.40;;